createdAt,value
2017-08-06T00:00:53.713Z,14.42
2017-08-06T00:02:03.020Z,14.36
2017-08-06T00:03:12.873Z,14.35
2017-08-06T00:04:22.080Z,14.25
2017-08-06T00:05:31.614Z,14.32
2017-08-06T00:06:40.816Z,14.5
2017-08-06T00:07:50.223Z,14.43
2017-08-06T00:08:59.428Z,14.45
2017-08-06T00:10:08.994Z,14.4
2017-08-06T00:11:18.201Z,14.43
2017-08-06T00:12:27.727Z,14.4
2017-08-06T00:13:37.518Z,14.35
2017-08-06T00:14:46.725Z,14.28
2017-08-06T00:15:55.929Z,14.36
2017-08-06T00:17:05.136Z,14.33
2017-08-06T00:18:14.340Z,14.36
2017-08-06T00:19:24.360Z,14.39
2017-08-06T00:20:33.245Z,14.35
2017-08-06T00:21:42.775Z,14.4
2017-08-06T00:22:52.305Z,14.29
2017-08-06T00:24:02.154Z,14.36
2017-08-06T00:25:11.735Z,14.22
2017-08-06T00:26:20.952Z,14.33
2017-08-06T00:27:30.161Z,14.29
2017-08-06T00:28:39.706Z,14.35
2017-08-06T00:29:49.559Z,14.18
2017-08-06T00:30:59.254Z,14.18
2017-08-06T00:32:08.785Z,14.29
2017-08-06T00:33:17.997Z,14.18
2017-08-06T00:34:26.877Z,14.24
2017-08-06T00:35:36.404Z,14.22
2017-08-06T00:36:45.778Z,14.21
2017-08-06T00:37:55.634Z,13.99
2017-08-06T00:39:05.161Z,14.15
2017-08-06T00:40:14.688Z,14.03
2017-08-06T00:41:23.901Z,13.99
2017-08-06T00:42:33.806Z,13.97
2017-08-06T00:43:43.336Z,14.02
2017-08-06T00:44:52.541Z,14.02
2017-08-06T00:46:01.750Z,13.99
2017-08-06T00:47:10.960Z,14.02
2017-08-06T00:48:20.415Z,13.91
2017-08-06T00:49:29.296Z,14.09
2017-08-06T00:50:38.828Z,13.88
2017-08-06T00:51:47.708Z,13.85
2017-08-06T00:52:56.932Z,13.97
2017-08-06T00:54:06.613Z,13.95
2017-08-06T00:55:16.466Z,13.96
2017-08-06T00:56:26.641Z,14.03
2017-08-06T00:57:35.842Z,14
2017-08-06T00:58:45.691Z,13.85
2017-08-06T00:59:55.006Z,13.89
2017-08-06T01:01:04.854Z,14
2017-08-06T01:02:14.705Z,13.96
2017-08-06T01:03:23.917Z,13.87
2017-08-06T01:04:33.766Z,13.87
2017-08-06T01:05:42.699Z,13.91
2017-08-06T01:06:52.549Z,13.91
2017-08-06T01:08:02.074Z,13.82
2017-08-06T01:09:11.602Z,13.78
2017-08-06T01:10:20.489Z,13.78
2017-08-06T01:11:30.118Z,13.77
2017-08-06T01:12:39.323Z,13.78
2017-08-06T01:13:48.849Z,13.77
2017-08-06T01:14:58.709Z,13.77
2017-08-06T01:16:08.242Z,13.81
2017-08-06T01:17:17.972Z,13.77
2017-08-06T01:18:26.851Z,13.71
2017-08-06T01:19:36.057Z,13.7
2017-08-06T01:20:45.588Z,13.78
2017-08-06T01:21:55.143Z,13.77
2017-08-06T01:23:05.365Z,13.77
2017-08-06T01:24:15.217Z,13.69
2017-08-06T01:25:25.070Z,13.63
2017-08-06T01:26:34.603Z,13.62
2017-08-06T01:27:44.468Z,13.64
2017-08-06T01:28:54.522Z,13.57
2017-08-06T01:30:03.729Z,13.6
2017-08-06T01:31:13.590Z,13.48
2017-08-06T01:32:23.439Z,13.45
2017-08-06T01:33:32.645Z,13.49
2017-08-06T01:34:42.594Z,13.49
2017-08-06T01:35:52.441Z,13.45
2017-08-06T01:37:01.967Z,13.48
2017-08-06T01:38:11.822Z,13.45
2017-08-06T01:39:21.350Z,13.42
2017-08-06T01:40:31.412Z,13.46
2017-08-06T01:41:40.936Z,13.54
2017-08-06T01:42:49.821Z,13.44
2017-08-06T01:43:59.672Z,13.45
2017-08-06T01:45:09.522Z,13.46
2017-08-06T01:46:18.779Z,13.44
2017-08-06T01:47:27.985Z,13.46
2017-08-06T01:48:37.518Z,13.45
2017-08-06T01:49:46.413Z,13.45
2017-08-06T01:50:56.264Z,13.39
2017-08-06T01:52:05.521Z,13.36
2017-08-06T01:53:14.721Z,13.38
2017-08-06T01:54:23.923Z,13.45
2017-08-06T01:55:32.811Z,13.39
2017-08-06T01:56:42.020Z,13.33
2017-08-06T01:57:51.860Z,13.39
2017-08-06T01:59:00.741Z,13.42
2017-08-06T02:00:09.946Z,13.39
2017-08-06T02:01:19.470Z,13.39
2017-08-06T02:02:28.353Z,13.41
2017-08-06T02:03:38.300Z,13.38
2017-08-06T02:04:47.530Z,13.3
2017-08-06T02:05:56.413Z,13.38
2017-08-06T02:07:05.613Z,13.29
2017-08-06T02:08:14.821Z,13.28
2017-08-06T02:09:24.647Z,13.28
2017-08-06T02:10:33.849Z,13.28
2017-08-06T02:11:43.060Z,13.28
2017-08-06T02:12:52.262Z,13.39
2017-08-06T02:14:01.472Z,13.33
2017-08-06T02:15:11.349Z,13.29
2017-08-06T02:16:20.880Z,13.3
2017-08-06T02:17:30.403Z,13.25
2017-08-06T02:18:39.607Z,13.11
2017-08-06T02:19:48.489Z,13.12
2017-08-06T02:20:58.038Z,13.14
2017-08-06T02:22:07.245Z,13.12
2017-08-06T02:23:16.772Z,13.01
2017-08-06T02:24:26.624Z,13.1
2017-08-06T02:25:36.149Z,13.04
2017-08-06T02:26:46.154Z,13.04
2017-08-06T02:27:55.678Z,13.07
2017-08-06T02:29:04.886Z,13.04
2017-08-06T02:30:14.097Z,13.08
2017-08-06T02:31:23.954Z,13.19
2017-08-06T02:32:33.409Z,13.12
2017-08-06T02:33:42.941Z,13.07
2017-08-06T02:34:52.466Z,13.19
2017-08-06T02:36:02.007Z,13.1
2017-08-06T02:37:10.889Z,13.05
2017-08-06T02:38:20.744Z,13.01
2017-08-06T02:39:30.605Z,13
2017-08-06T02:40:40.788Z,13.04
2017-08-06T02:41:50.637Z,13.07
2017-08-06T02:42:59.525Z,13.05
2017-08-06T02:44:09.806Z,13.1
2017-08-06T02:45:19.336Z,13.03
2017-08-06T02:46:28.868Z,12.96
2017-08-06T02:47:38.721Z,13.03
2017-08-06T02:48:47.927Z,13.01
2017-08-06T02:49:57.490Z,13.01
2017-08-06T02:51:07.022Z,12.95
2017-08-06T02:52:17.201Z,12.96
2017-08-06T02:53:26.422Z,12.96
2017-08-06T02:54:35.953Z,13
2017-08-06T02:55:45.455Z,13.03
2017-08-06T02:56:55.627Z,13.05
2017-08-06T02:58:04.509Z,12.96
2017-08-06T02:59:14.357Z,12.96
2017-08-06T03:00:24.215Z,12.95
2017-08-06T03:01:33.670Z,13
2017-08-06T03:02:42.875Z,12.93
2017-08-06T03:03:52.077Z,12.93
2017-08-06T03:05:01.601Z,12.86
2017-08-06T03:06:11.131Z,12.85
2017-08-06T03:07:21.131Z,12.83
2017-08-06T03:08:30.008Z,12.95
2017-08-06T03:09:38.893Z,12.85
2017-08-06T03:10:48.417Z,12.86
2017-08-06T03:11:57.621Z,12.9
2017-08-06T03:13:06.650Z,12.85
2017-08-06T03:14:15.532Z,12.82
2017-08-06T03:15:24.754Z,12.83
2017-08-06T03:16:33.640Z,12.78
2017-08-06T03:17:43.486Z,12.86
2017-08-06T03:18:53.160Z,12.77
2017-08-06T03:20:03.008Z,12.79
2017-08-06T03:21:11.889Z,12.65
2017-08-06T03:22:20.771Z,12.65
2017-08-06T03:23:29.976Z,12.75
2017-08-06T03:24:39.331Z,12.68
2017-08-06T03:25:48.212Z,12.74
2017-08-06T03:26:58.395Z,12.74
2017-08-06T03:28:07.275Z,12.79
2017-08-06T03:29:16.803Z,12.78
2017-08-06T03:30:26.850Z,12.78
2017-08-06T03:31:36.381Z,12.71
2017-08-06T03:32:45.905Z,12.65
2017-08-06T03:33:55.758Z,12.52
2017-08-06T03:35:04.656Z,12.65
2017-08-06T03:36:14.493Z,12.52
2017-08-06T03:37:24.022Z,12.53
2017-08-06T03:38:33.549Z,12.65
2017-08-06T03:39:42.430Z,12.62
2017-08-06T03:40:51.637Z,12.53
2017-08-06T03:42:00.993Z,12.53
2017-08-06T03:43:10.523Z,12.56
2017-08-06T03:44:20.704Z,12.57
2017-08-06T03:45:30.233Z,12.59
2017-08-06T03:46:40.082Z,12.56
2017-08-06T03:47:49.335Z,12.54
2017-08-06T03:48:59.193Z,12.59
2017-08-06T03:50:08.722Z,12.52
2017-08-06T03:51:18.252Z,12.59
2017-08-06T03:52:27.137Z,12.57
2017-08-06T03:53:36.342Z,12.47
2017-08-06T03:54:45.870Z,12.46
2017-08-06T03:55:55.070Z,12.49
2017-08-06T03:57:04.277Z,12.46
2017-08-06T03:58:14.142Z,12.45
2017-08-06T03:59:23.174Z,12.49
2017-08-06T04:00:32.701Z,12.53
2017-08-06T04:01:41.914Z,12.45
2017-08-06T04:02:51.122Z,12.46
2017-08-06T04:04:00.973Z,12.47
2017-08-06T04:05:10.654Z,12.46
2017-08-06T04:06:20.511Z,12.49
2017-08-06T04:07:30.360Z,12.52
2017-08-06T04:08:39.883Z,12.47
2017-08-06T04:09:49.090Z,12.5
2017-08-06T04:10:58.612Z,12.46
2017-08-06T04:12:08.143Z,12.47
2017-08-06T04:13:17.996Z,12.53
2017-08-06T04:14:27.203Z,12.46
2017-08-06T04:15:36.730Z,12.47
2017-08-06T04:16:46.087Z,12.49
2017-08-06T04:17:55.291Z,12.56
2017-08-06T04:19:05.849Z,12.49
2017-08-06T04:20:15.058Z,12.5
2017-08-06T04:21:24.906Z,12.5
2017-08-06T04:22:34.582Z,12.57
2017-08-06T04:23:43.786Z,12.54
2017-08-06T04:24:52.669Z,12.52
2017-08-06T04:26:01.549Z,12.47
2017-08-06T04:27:11.079Z,12.59
2017-08-06T04:28:20.759Z,12.53
2017-08-06T04:29:30.289Z,12.56
2017-08-06T04:30:39.822Z,12.53
2017-08-06T04:31:49.359Z,12.59
2017-08-06T04:32:58.882Z,12.57
2017-08-06T04:34:08.711Z,12.5
2017-08-06T04:35:17.914Z,12.49
2017-08-06T04:36:27.764Z,12.56
2017-08-06T04:37:36.647Z,12.46
2017-08-06T04:38:45.853Z,12.5
2017-08-06T04:39:55.254Z,12.54
2017-08-06T04:41:05.110Z,12.54
2017-08-06T04:42:14.636Z,12.54
2017-08-06T04:43:23.840Z,12.49
2017-08-06T04:44:33.366Z,12.56
2017-08-06T04:45:42.451Z,12.57
2017-08-06T04:46:51.655Z,12.54
2017-08-06T04:48:01.187Z,12.52
2017-08-06T04:49:10.070Z,12.53
2017-08-06T04:50:19.272Z,12.54
2017-08-06T04:51:28.627Z,12.5
2017-08-06T04:52:38.156Z,12.5
2017-08-06T04:53:47.685Z,12.46
2017-08-06T04:54:57.538Z,12.53
2017-08-06T04:56:07.393Z,12.53
2017-08-06T04:57:16.280Z,12.52
2017-08-06T04:58:25.491Z,12.57
2017-08-06T04:59:35.021Z,12.52
2017-08-06T05:00:44.550Z,12.52
2017-08-06T05:01:54.085Z,12.53
2017-08-06T05:03:03.821Z,12.64
2017-08-06T05:04:13.345Z,12.68
2017-08-06T05:05:22.560Z,12.67
2017-08-06T05:06:32.097Z,12.75
2017-08-06T05:07:41.627Z,12.67
2017-08-06T05:08:51.480Z,12.7
2017-08-06T05:10:00.687Z,12.77
2017-08-06T05:11:09.887Z,12.79
2017-08-06T05:12:18.767Z,12.77
2017-08-06T05:13:28.299Z,12.72
2017-08-06T05:14:37.655Z,12.67
2017-08-06T05:15:46.862Z,12.77
2017-08-06T05:16:56.387Z,12.82
2017-08-06T05:18:05.289Z,12.72
2017-08-06T05:19:14.826Z,12.82
2017-08-06T05:20:24.837Z,12.78
2017-08-06T05:21:34.694Z,12.86
2017-08-06T05:22:43.901Z,12.78
2017-08-06T05:23:53.117Z,12.75
2017-08-06T05:25:02.002Z,12.93
2017-08-06T05:26:12.109Z,12.85
2017-08-06T05:27:21.962Z,12.9
2017-08-06T05:28:31.827Z,12.95
2017-08-06T05:29:41.693Z,12.89
2017-08-06T05:30:50.905Z,12.95
2017-08-06T05:32:00.536Z,12.96
2017-08-06T05:33:10.066Z,13
2017-08-06T05:34:18.949Z,13.11
2017-08-06T05:35:27.839Z,13.04
2017-08-06T05:36:36.716Z,13.19
2017-08-06T05:37:45.659Z,13.1
2017-08-06T05:38:55.189Z,13.15
2017-08-06T05:40:04.731Z,13.15
2017-08-06T05:41:14.589Z,13.29
2017-08-06T05:42:24.437Z,13.26
2017-08-06T05:43:33.799Z,13.32
2017-08-06T05:44:43.651Z,13.25
2017-08-06T05:45:52.856Z,13.32
2017-08-06T05:47:03.034Z,13.29
2017-08-06T05:48:12.560Z,13.32
2017-08-06T05:49:22.788Z,13.44
2017-08-06T05:50:32.317Z,13.48
2017-08-06T05:51:41.841Z,13.48
2017-08-06T05:52:50.723Z,13.46
2017-08-06T05:54:00.259Z,13.51
2017-08-06T05:55:10.714Z,13.52
2017-08-06T05:56:19.916Z,13.39
2017-08-06T05:57:30.085Z,13.46
2017-08-06T05:58:39.936Z,13.66
2017-08-06T05:59:49.789Z,13.7
2017-08-06T06:00:59.518Z,13.69
2017-08-06T06:02:08.737Z,13.7
2017-08-06T06:03:18.271Z,13.67
2017-08-06T06:04:27.809Z,13.77
2017-08-06T06:05:37.337Z,13.75
2017-08-06T06:06:46.314Z,13.75
2017-08-06T06:07:55.526Z,13.77
2017-08-06T06:09:04.740Z,13.88
2017-08-06T06:10:14.915Z,13.85
2017-08-06T06:11:24.778Z,13.92
2017-08-06T06:12:34.412Z,13.84
2017-08-06T06:13:43.956Z,13.97
2017-08-06T06:14:54.138Z,13.95
2017-08-06T06:16:03.990Z,13.92
2017-08-06T06:17:13.202Z,13.95
2017-08-06T06:18:23.209Z,14.06
2017-08-06T06:19:33.060Z,14.21
2017-08-06T06:20:41.945Z,14.2
2017-08-06T06:21:51.148Z,14.18
2017-08-06T06:23:00.358Z,14.24
2017-08-06T06:24:10.087Z,14.25
2017-08-06T06:25:19.943Z,14.39
2017-08-06T06:26:29.475Z,14.46
2017-08-06T06:27:39.324Z,14.5
2017-08-06T06:28:48.532Z,14.4
2017-08-06T06:29:57.756Z,14.5
2017-08-06T06:31:07.288Z,14.58
2017-08-06T06:32:17.145Z,14.58
2017-08-06T06:33:26.357Z,14.62
2017-08-06T06:34:35.564Z,14.62
2017-08-06T06:35:45.343Z,14.57
2017-08-06T06:36:54.867Z,14.69
2017-08-06T06:38:04.724Z,14.64
2017-08-06T06:39:14.257Z,14.77
2017-08-06T06:40:23.468Z,14.73
2017-08-06T06:41:33.153Z,14.81
2017-08-06T06:42:42.355Z,14.88
2017-08-06T06:43:51.886Z,14.92
2017-08-06T06:45:01.417Z,14.96
2017-08-06T06:46:10.637Z,14.94
2017-08-06T06:47:19.944Z,15.01
2017-08-06T06:48:28.827Z,14.96
2017-08-06T06:49:38.354Z,15.02
2017-08-06T06:50:47.564Z,15.11
2017-08-06T06:51:57.095Z,15.2
2017-08-06T06:53:06.946Z,15.2
2017-08-06T06:54:16.794Z,15.28
2017-08-06T06:55:26.327Z,15.17
2017-08-06T06:56:35.856Z,15.21
2017-08-06T06:57:45.403Z,15.21
2017-08-06T06:58:55.573Z,15.21
2017-08-06T07:00:05.114Z,15.28
2017-08-06T07:01:14.325Z,15.36
2017-08-06T07:02:23.859Z,15.43
2017-08-06T07:03:33.720Z,15.39
2017-08-06T07:04:43.358Z,15.36
2017-08-06T07:05:52.892Z,15.5
2017-08-06T07:07:02.096Z,15.53
2017-08-06T07:08:10.976Z,15.54
2017-08-06T07:09:20.510Z,15.56
2017-08-06T07:10:30.017Z,15.54
2017-08-06T07:11:39.218Z,15.64
2017-08-06T07:12:48.747Z,15.65
2017-08-06T07:13:58.641Z,15.62
2017-08-06T07:15:07.849Z,15.68
2017-08-06T07:16:17.705Z,15.74
2017-08-06T07:17:27.242Z,15.86
2017-08-06T07:18:37.094Z,15.86
2017-08-06T07:19:47.272Z,15.84
2017-08-06T07:20:56.480Z,15.9
2017-08-06T07:22:06.166Z,15.83
2017-08-06T07:23:16.017Z,16.01
2017-08-06T07:24:25.867Z,15.94
2017-08-06T07:25:35.079Z,15.96
2017-08-06T07:26:44.609Z,15.92
2017-08-06T07:27:53.644Z,15.96
2017-08-06T07:29:02.553Z,15.97
2017-08-06T07:30:11.765Z,16.01
2017-08-06T07:31:21.620Z,16.05
2017-08-06T07:32:30.831Z,16.08
2017-08-06T07:33:40.565Z,16.01
2017-08-06T07:34:49.770Z,16.14
2017-08-06T07:35:59.298Z,16.12
2017-08-06T07:37:08.554Z,16.09
2017-08-06T07:38:17.767Z,16.27
2017-08-06T07:39:26.980Z,16.33
2017-08-06T07:40:36.509Z,16.35
2017-08-06T07:41:45.714Z,16.42
2017-08-06T07:42:55.241Z,16.5
2017-08-06T07:44:04.450Z,16.5
2017-08-06T07:45:14.038Z,16.68
2017-08-06T07:46:23.570Z,16.5
2017-08-06T07:47:32.463Z,16.63
2017-08-06T07:48:41.675Z,16.58
2017-08-06T07:49:51.202Z,16.57
2017-08-06T07:51:00.892Z,16.66
2017-08-06T07:52:10.749Z,16.76
2017-08-06T07:53:20.608Z,16.79
2017-08-06T07:54:29.822Z,16.83
2017-08-06T07:55:39.363Z,16.85
2017-08-06T07:56:49.415Z,16.98
2017-08-06T07:57:58.621Z,16.96
2017-08-06T07:59:08.173Z,16.98
2017-08-06T08:00:18.353Z,17.04
2017-08-06T08:01:27.892Z,17.01
2017-08-06T08:02:37.537Z,17.03
2017-08-06T08:03:47.715Z,16.98
2017-08-06T08:04:56.926Z,17.07
2017-08-06T08:06:06.142Z,17.19
2017-08-06T08:07:16.322Z,17.14
2017-08-06T08:08:25.904Z,17.16
2017-08-06T08:09:35.759Z,17.3
2017-08-06T08:10:44.966Z,17.33
2017-08-06T08:11:53.851Z,17.31
2017-08-06T08:13:03.711Z,17.4
2017-08-06T08:14:13.067Z,17.48
2017-08-06T08:15:22.922Z,17.51
2017-08-06T08:16:32.783Z,17.55
2017-08-06T08:17:42.966Z,17.63
2017-08-06T08:18:52.176Z,17.56
2017-08-06T08:20:01.912Z,17.7
2017-08-06T08:21:11.767Z,17.74
2017-08-06T08:22:20.977Z,17.7
2017-08-06T08:23:30.831Z,17.9
2017-08-06T08:24:40.686Z,17.87
2017-08-06T08:25:50.417Z,17.78
2017-08-06T08:27:00.267Z,17.79
2017-08-06T08:28:09.800Z,17.92
2017-08-06T08:29:19.006Z,17.97
2017-08-06T08:30:28.537Z,18
2017-08-06T08:31:37.482Z,18.15
2017-08-06T08:32:46.707Z,18.1
2017-08-06T08:33:55.607Z,18.18
2017-08-06T08:35:04.852Z,18.29
2017-08-06T08:36:14.390Z,18.29
2017-08-06T08:37:23.698Z,18.25
2017-08-06T08:38:32.909Z,18.26
2017-08-06T08:39:42.118Z,18.29
2017-08-06T08:40:51.004Z,18.33
2017-08-06T08:42:00.533Z,18.37
2017-08-06T08:43:09.716Z,18.48
2017-08-06T08:44:19.247Z,18.33
2017-08-06T08:45:28.137Z,18.36
2017-08-06T08:46:37.991Z,18.37
2017-08-06T08:47:48.169Z,18.41
2017-08-06T08:48:57.487Z,18.42
2017-08-06T08:50:07.340Z,18.48
2017-08-06T08:51:16.552Z,18.48
2017-08-06T08:52:26.405Z,18.52
2017-08-06T08:53:35.291Z,18.5
2017-08-06T08:54:44.600Z,18.52
2017-08-06T08:55:54.135Z,18.47
2017-08-06T08:57:03.342Z,18.66
2017-08-06T08:58:12.870Z,18.75
2017-08-06T08:59:22.405Z,18.84
2017-08-06T09:00:32.320Z,18.84
2017-08-06T09:01:41.536Z,18.85
2017-08-06T09:02:51.745Z,18.82
2017-08-06T09:04:01.278Z,18.81
2017-08-06T09:05:11.137Z,18.95
2017-08-06T09:06:20.883Z,18.87
2017-08-06T09:07:29.767Z,18.84
2017-08-06T09:08:39.623Z,18.92
2017-08-06T09:09:48.835Z,18.85
2017-08-06T09:10:58.043Z,18.81
2017-08-06T09:12:07.403Z,18.75
2017-08-06T09:13:16.936Z,18.82
2017-08-06T09:14:26.143Z,18.78
2017-08-06T09:15:35.679Z,18.82
2017-08-06T09:16:44.562Z,18.85
2017-08-06T09:17:53.822Z,18.92
2017-08-06T09:19:03.678Z,19.08
2017-08-06T09:20:12.892Z,19.18
2017-08-06T09:21:22.103Z,19.22
2017-08-06T09:22:31.309Z,19.19
2017-08-06T09:23:40.443Z,19.31
2017-08-06T09:24:49.658Z,19.31
2017-08-06T09:25:59.193Z,19.28
2017-08-06T09:27:08.080Z,19.07
2017-08-06T09:28:17.940Z,19.11
2017-08-06T09:29:27.153Z,19.16
2017-08-06T09:30:36.683Z,19.11
2017-08-06T09:31:46.224Z,19.19
2017-08-06T09:32:55.110Z,19.28
2017-08-06T09:34:04.662Z,19.29
2017-08-06T09:35:14.572Z,19.4
2017-08-06T09:36:23.786Z,19.4
2017-08-06T09:37:32.676Z,19.56
2017-08-06T09:38:41.886Z,19.63
2017-08-06T09:39:51.094Z,19.71
2017-08-06T09:41:00.558Z,19.71
2017-08-06T09:42:09.450Z,19.61
2017-08-06T09:43:18.982Z,19.58
2017-08-06T09:44:28.513Z,19.47
2017-08-06T09:45:37.396Z,19.58
2017-08-06T09:46:46.762Z,19.58
2017-08-06T09:47:56.299Z,19.62
2017-08-06T09:49:05.838Z,19.63
2017-08-06T09:50:15.699Z,19.76
2017-08-06T09:51:25.572Z,19.69
2017-08-06T09:52:34.509Z,19.8
2017-08-06T09:53:44.042Z,19.74
2017-08-06T09:54:53.896Z,20.06
2017-08-06T09:56:03.427Z,19.95
2017-08-06T09:57:13.291Z,19.99
2017-08-06T09:58:23.199Z,20.05
2017-08-06T09:59:32.088Z,19.91
2017-08-06T10:00:40.976Z,19.77
2017-08-06T10:01:50.506Z,19.81
2017-08-06T10:03:00.047Z,19.81
2017-08-06T10:04:09.739Z,19.88
2017-08-06T10:05:18.956Z,19.73
2017-08-06T10:06:28.164Z,19.68
2017-08-06T10:07:37.373Z,19.74
2017-08-06T10:08:46.589Z,19.73
2017-08-06T10:09:55.677Z,19.74
2017-08-06T10:11:05.217Z,19.84
2017-08-06T10:12:15.072Z,20.05
2017-08-06T10:13:24.285Z,20.05
2017-08-06T10:14:33.181Z,20.06
2017-08-06T10:15:43.341Z,20.05
2017-08-06T10:16:52.552Z,20.03
2017-08-06T10:18:02.086Z,20.05
2017-08-06T10:19:11.298Z,20.2
2017-08-06T10:20:21.150Z,20.24
2017-08-06T10:21:30.734Z,20.21
2017-08-06T10:22:40.270Z,20.32
2017-08-06T10:23:49.816Z,20.32
2017-08-06T10:25:00.001Z,20.18
2017-08-06T10:26:08.886Z,20.23
2017-08-06T10:27:18.520Z,20.24
2017-08-06T10:28:28.067Z,20.31
2017-08-06T10:29:37.284Z,20.24
2017-08-06T10:30:47.139Z,20.29
2017-08-06T10:31:56.989Z,20.35
2017-08-06T10:33:06.027Z,20.26
2017-08-06T10:34:15.085Z,20.17
2017-08-06T10:35:24.296Z,20.21
2017-08-06T10:36:34.152Z,20.29
2017-08-06T10:37:43.693Z,20.29
2017-08-06T10:38:52.881Z,20.21
2017-08-06T10:40:02.739Z,20.36
2017-08-06T10:41:11.625Z,20.31
2017-08-06T10:42:20.515Z,20.32
2017-08-06T10:43:29.742Z,20.38
2017-08-06T10:44:38.730Z,20.23
2017-08-06T10:45:48.263Z,20.33
2017-08-06T10:46:58.120Z,20.35
2017-08-06T10:48:07.327Z,20.41
2017-08-06T10:49:17.183Z,20.32
2017-08-06T10:50:27.087Z,20.48
2017-08-06T10:51:36.307Z,20.55
2017-08-06T10:52:45.843Z,20.58
2017-08-06T10:53:55.373Z,20.58
2017-08-06T10:55:04.907Z,20.69
2017-08-06T10:56:14.165Z,20.73
2017-08-06T10:57:23.723Z,20.69
2017-08-06T10:58:33.255Z,20.67
2017-08-06T10:59:42.463Z,20.79
2017-08-06T11:00:52.007Z,20.82
2017-08-06T11:02:01.538Z,20.91
2017-08-06T11:03:11.078Z,20.92
2017-08-06T11:04:20.290Z,20.97
2017-08-06T11:05:29.819Z,21.12
2017-08-06T11:06:39.352Z,21.13
2017-08-06T11:07:49.036Z,21.09
2017-08-06T11:08:58.247Z,21.24
2017-08-06T11:10:08.427Z,21.37
2017-08-06T11:11:17.639Z,21.42
2017-08-06T11:12:27.494Z,21.56
2017-08-06T11:13:37.405Z,21.59
2017-08-06T11:14:46.936Z,21.47
2017-08-06T11:15:56.468Z,21.52
2017-08-06T11:17:05.682Z,21.67
2017-08-06T11:18:15.223Z,21.62
2017-08-06T11:19:24.584Z,21.62
2017-08-06T11:20:33.797Z,21.71
2017-08-06T11:21:43.014Z,21.67
2017-08-06T11:22:52.558Z,21.59
2017-08-06T11:24:02.091Z,21.46
2017-08-06T11:25:11.725Z,21.62
2017-08-06T11:26:21.256Z,21.61
2017-08-06T11:27:31.116Z,21.69
2017-08-06T11:28:40.332Z,21.64
2017-08-06T11:29:50.211Z,21.65
2017-08-06T11:30:59.568Z,21.54
2017-08-06T11:32:08.457Z,21.62
2017-08-06T11:33:17.670Z,21.65
2017-08-06T11:34:27.537Z,21.64
2017-08-06T11:35:36.748Z,21.65
2017-08-06T11:36:46.068Z,21.72
2017-08-06T11:37:55.304Z,21.79
2017-08-06T11:39:04.512Z,21.94
2017-08-06T11:40:14.047Z,21.94
2017-08-06T11:41:23.907Z,21.98
2017-08-06T11:42:33.277Z,21.86
2017-08-06T11:43:42.164Z,21.86
2017-08-06T11:44:52.022Z,21.79
2017-08-06T11:46:01.238Z,21.83
2017-08-06T11:47:10.782Z,21.74
2017-08-06T11:48:19.717Z,21.74
2017-08-06T11:49:28.933Z,21.69
2017-08-06T11:50:37.817Z,21.82
2017-08-06T11:51:47.355Z,21.75
2017-08-06T11:52:56.245Z,21.75
2017-08-06T11:54:05.606Z,21.75
2017-08-06T11:55:14.819Z,21.83
2017-08-06T11:56:23.708Z,21.69
2017-08-06T11:57:32.918Z,21.74
2017-08-06T11:58:42.452Z,21.68
2017-08-06T11:59:52.086Z,21.65
2017-08-06T12:01:01.944Z,21.42
2017-08-06T12:02:11.486Z,21.28
2017-08-06T12:03:21.664Z,21.28
2017-08-06T12:04:30.875Z,21.16
2017-08-06T12:05:40.592Z,21.17
2017-08-06T12:06:49.805Z,21.37
2017-08-06T12:07:59.012Z,21.43
2017-08-06T12:09:08.545Z,21.58
2017-08-06T12:10:17.759Z,21.8
2017-08-06T12:11:27.717Z,21.77
2017-08-06T12:12:37.577Z,22.02
2017-08-06T12:13:47.117Z,22.14
2017-08-06T12:14:56.009Z,22.36
2017-08-06T12:16:05.546Z,22.39
2017-08-06T12:17:15.059Z,22.46
2017-08-06T12:18:24.930Z,22.52
2017-08-06T12:19:33.834Z,22.55
2017-08-06T12:20:42.728Z,22.73
2017-08-06T12:21:52.271Z,22.61
2017-08-06T12:23:02.180Z,22.54
2017-08-06T12:24:11.393Z,22.52
2017-08-06T12:25:20.936Z,22.51
2017-08-06T12:26:30.482Z,22.76
2017-08-06T12:27:40.026Z,22.82
2017-08-06T12:28:49.352Z,23
2017-08-06T12:29:58.902Z,23.15
2017-08-06T12:31:08.448Z,23.31
2017-08-06T12:32:17.343Z,23.39
2017-08-06T12:33:26.561Z,23.48
2017-08-06T12:34:35.607Z,23.65
2017-08-06T12:35:44.826Z,23.53
2017-08-06T12:36:54.067Z,23.66
2017-08-06T12:38:03.832Z,23.76
2017-08-06T12:39:13.047Z,23.88
2017-08-06T12:40:23.028Z,24.05
2017-08-06T12:41:31.927Z,23.94
2017-08-06T12:42:41.150Z,24.06
2017-08-06T12:43:50.382Z,24.06
2017-08-06T12:44:59.613Z,24.21
2017-08-06T12:46:08.938Z,24.4
2017-08-06T12:47:18.167Z,24.64
2017-08-06T12:48:27.387Z,24.8
2017-08-06T12:49:37.259Z,24.58
2017-08-06T12:50:47.469Z,24.49
2017-08-06T12:51:56.841Z,24.65
2017-08-06T12:53:06.386Z,24.32
2017-08-06T12:54:15.609Z,23.93
2017-08-06T12:55:24.508Z,24.03
2017-08-06T12:56:34.060Z,24.08
2017-08-06T12:57:43.771Z,24.15
2017-08-06T12:58:53.327Z,24.58
2017-08-06T13:00:02.870Z,24.78
2017-08-06T13:01:12.422Z,24.8
2017-08-06T13:02:21.969Z,24.87
2017-08-06T13:03:31.397Z,25.13
2017-08-06T13:04:40.943Z,25.3
2017-08-06T13:05:50.498Z,25.36
2017-08-06T13:06:59.721Z,25.36
2017-08-06T13:08:09.273Z,25.55
2017-08-06T13:09:19.199Z,25.42
2017-08-06T13:10:28.752Z,25.42
2017-08-06T13:11:37.659Z,25.46
2017-08-06T13:12:47.208Z,25.52
2017-08-06T13:13:56.753Z,25.5
2017-08-06T13:15:06.418Z,25.4
2017-08-06T13:16:16.024Z,25.39
2017-08-06T13:17:25.245Z,25.46
2017-08-06T13:18:35.118Z,25.61
2017-08-06T13:19:44.338Z,25.65
2017-08-06T13:20:53.734Z,25.9
2017-08-06T13:22:03.280Z,26.01
2017-08-06T13:23:12.834Z,25.75
2017-08-06T13:24:22.708Z,25.75
2017-08-06T13:25:31.608Z,25.9
2017-08-06T13:26:40.717Z,25.61
2017-08-06T13:27:50.263Z,25.57
2017-08-06T13:28:59.488Z,25.42
2017-08-06T13:30:08.393Z,25.33
2017-08-06T13:31:18.262Z,25.23
2017-08-06T13:32:27.636Z,25.14
2017-08-06T13:33:36.859Z,24.8
2017-08-06T13:34:46.081Z,24.78
2017-08-06T13:35:55.300Z,24.78
2017-08-06T13:37:04.847Z,24.67
2017-08-06T13:38:14.294Z,24.65
2017-08-06T13:39:23.520Z,24.6
2017-08-06T13:40:32.413Z,24.49
2017-08-06T13:41:41.629Z,24.5
2017-08-06T13:42:50.851Z,24.3
2017-08-06T13:44:00.439Z,24.09
2017-08-06T13:45:09.656Z,23.98
2017-08-06T13:46:18.547Z,23.84
2017-08-06T13:47:27.441Z,23.79
2017-08-06T13:48:36.661Z,23.7
2017-08-06T13:49:46.531Z,23.69
2017-08-06T13:50:55.764Z,23.68
2017-08-06T13:52:05.304Z,23.7
2017-08-06T13:53:14.200Z,23.65
2017-08-06T13:54:23.413Z,23.54
2017-08-06T13:55:32.356Z,23.55
2017-08-06T13:56:41.242Z,23.47
2017-08-06T13:57:50.785Z,23.32
2017-08-06T13:58:59.675Z,23.33
2017-08-06T14:00:09.210Z,23.04
2017-08-06T14:01:18.482Z,23
2017-08-06T14:02:28.013Z,22.92
2017-08-06T14:03:37.549Z,23.02
2017-08-06T14:04:47.407Z,22.94
2017-08-06T14:05:56.939Z,22.88
2017-08-06T14:07:06.535Z,22.88
2017-08-06T14:08:15.803Z,22.94
2017-08-06T14:09:25.019Z,23.2
2017-08-06T14:10:34.230Z,23.47
2017-08-06T14:11:43.443Z,23.84
2017-08-06T14:12:52.977Z,24.03
2017-08-06T14:14:01.872Z,24.16
2017-08-06T14:15:11.456Z,24.18
2017-08-06T14:16:20.997Z,24.15
2017-08-06T14:17:30.215Z,24.15
2017-08-06T14:18:39.115Z,24.1
2017-08-06T14:19:48.656Z,24.08
2017-08-06T14:20:57.870Z,24.03
2017-08-06T14:22:07.088Z,23.95
2017-08-06T14:23:16.632Z,24.03
2017-08-06T14:24:25.774Z,24.12
2017-08-06T14:25:34.669Z,24.3
2017-08-06T14:26:43.885Z,24.53
2017-08-06T14:27:53.433Z,24.6
2017-08-06T14:29:02.337Z,24.46
2017-08-06T14:30:11.979Z,24.49
2017-08-06T14:31:21.192Z,24.55
2017-08-06T14:32:30.737Z,24.64
2017-08-06T14:33:40.275Z,24.84
2017-08-06T14:34:49.171Z,25.02
2017-08-06T14:35:59.198Z,25.23
2017-08-06T14:37:09.065Z,25.52
2017-08-06T14:38:17.960Z,25.38
2017-08-06T14:39:27.505Z,25.61
2017-08-06T14:40:37.050Z,25.73
2017-08-06T14:41:46.598Z,25.97
2017-08-06T14:42:56.142Z,26.15
2017-08-06T14:44:05.689Z,26.3
2017-08-06T14:45:14.908Z,26.45
2017-08-06T14:46:24.457Z,26.35
2017-08-06T14:47:34.175Z,26.35
2017-08-06T14:48:43.405Z,26.29
2017-08-06T14:49:52.636Z,26.17
2017-08-06T14:51:01.538Z,26.02
2017-08-06T14:52:11.086Z,25.8
2017-08-06T14:53:20.628Z,25.7
2017-08-06T14:54:29.529Z,25.6
2017-08-06T14:55:38.432Z,25.39
2017-08-06T14:56:47.979Z,25.25
2017-08-06T14:57:57.533Z,25.23